sensor_id;sensor_type;location;lat;lon;timestamp;temperature;humidity
71754;DHT22;59593;51.716;7.016;2023-03-18T00:01:13;12.90;99.90
71754;DHT22;59593;51.716;7.016;2023-03-18T00:03:39;12.90;99.90
71754;DHT22;59593;51.716;7.016;2023-03-18T00:06:09;12.90;99.90
71754;DHT22;59593;51.716;7.016;2023-03-18T00:08:36;12.90;99.90
71754;DHT22;59593;51.716;7.016;2023-03-18T00:11:04;12.90;99.90
71754;DHT22;59593;51.716;7.016;2023-03-18T00:13:32;12.80;99.90
71754;DHT22;59593;51.716;7.016;2023-03-18T00:15:59;12.80;99.90
71754;DHT22;59593;51.716;7.016;2023-03-18T00:18:26;12.70;99.90
71754;DHT22;59593;51.716;7.016;2023-03-18T00:20:51;12.70;99.90
71754;DHT22;59593;51.716;7.016;2023-03-18T00:23:17;12.70;99.90
71754;DHT22;59593;51.716;7.016;2023-03-18T00:25:46;12.70;99.90
71754;DHT22;59593;51.716;7.016;2023-03-18T00:28:12;12.60;99.90
71754;DHT22;59593;51.716;7.016;2023-03-18T00:30:39;12.50;99.90
71754;DHT22;59593;51.716;7.016;2023-03-18T00:33:06;12.60;99.90
71754;DHT22;59593;51.716;7.016;2023-03-18T00:35:32;12.50;99.90
71754;DHT22;59593;51.716;7.016;2023-03-18T00:37:58;12.50;99.90
71754;DHT22;59593;51.716;7.016;2023-03-18T00:40:24;12.40;99.90
71754;DHT22;59593;51.716;7.016;2023-03-18T00:43:07;12.40;99.90
71754;DHT22;59593;51.716;7.016;2023-03-18T00:45:37;12.50;99.90
71754;DHT22;59593;51.716;7.016;2023-03-18T00:48:03;12.40;99.90
71754;DHT22;59593;51.716;7.016;2023-03-18T00:50:29;12.30;99.90
71754;DHT22;59593;51.716;7.016;2023-03-18T00:52:54;12.30;99.90
71754;DHT22;59593;51.716;7.016;2023-03-18T00:55:21;12.30;99.90
71754;DHT22;59593;51.716;7.016;2023-03-18T00:57:46;12.30;99.90
71754;DHT22;59593;51.716;7.016;2023-03-18T01:00:13;12.30;99.90
71754;DHT22;59593;51.716;7.016;2023-03-18T01:02:42;12.20;99.90
71754;DHT22;59593;51.716;7.016;2023-03-18T01:05:07;12.20;99.90
71754;DHT22;59593;51.716;7.016;2023-03-18T01:07:33;12.30;99.90
71754;DHT22;59593;51.716;7.016;2023-03-18T01:09:59;12.30;99.90
71754;DHT22;59593;51.716;7.016;2023-03-18T01:12:24;12.30;99.90
71754;DHT22;59593;51.716;7.016;2023-03-18T01:14:50;12.30;99.90
71754;DHT22;59593;51.716;7.016;2023-03-18T01:17:15;12.30;99.90
71754;DHT22;59593;51.716;7.016;2023-03-18T01:19:41;12.10;99.90
71754;DHT22;59593;51.716;7.016;2023-03-18T01:22:07;12.10;99.90
71754;DHT22;59593;51.716;7.016;2023-03-18T01:24:33;12.00;99.90
71754;DHT22;59593;51.716;7.016;2023-03-18T01:27:01;12.00;99.90
71754;DHT22;59593;51.716;7.016;2023-03-18T01:29:26;12.00;99.90
71754;DHT22;59593;51.716;7.016;2023-03-18T01:31:52;12.00;99.90
71754;DHT22;59593;51.716;7.016;2023-03-18T01:34:19;12.00;99.90
71754;DHT22;59593;51.716;7.016;2023-03-18T01:36:45;12.00;99.90
71754;DHT22;59593;51.716;7.016;2023-03-18T01:39:13;12.00;99.90
71754;DHT22;59593;51.716;7.016;2023-03-18T01:41:39;12.00;99.90
71754;DHT22;59593;51.716;7.016;2023-03-18T01:44:15;12.00;99.90
71754;DHT22;59593;51.716;7.016;2023-03-18T01:46:43;11.90;99.90
71754;DHT22;59593;51.716;7.016;2023-03-18T01:49:34;11.80;99.90
71754;DHT22;59593;51.716;7.016;2023-03-18T01:52:00;11.70;99.90
71754;DHT22;59593;51.716;7.016;2023-03-18T01:54:28;11.80;99.90
71754;DHT22;59593;51.716;7.016;2023-03-18T01:56:56;11.90;99.90
71754;DHT22;59593;51.716;7.016;2023-03-18T01:59:25;11.70;99.90
71754;DHT22;59593;51.716;7.016;2023-03-18T02:02:01;11.70;99.90
71754;DHT22;59593;51.716;7.016;2023-03-18T02:04:31;11.60;99.90
71754;DHT22;59593;51.716;7.016;2023-03-18T02:06:58;11.60;99.90
71754;DHT22;59593;51.716;7.016;2023-03-18T02:09:24;11.70;99.90
71754;DHT22;59593;51.716;7.016;2023-03-18T02:11:50;11.70;99.90
71754;DHT22;59593;51.716;7.016;2023-03-18T02:14:19;11.90;99.90
71754;DHT22;59593;51.716;7.016;2023-03-18T02:17:10;11.90;99.90
71754;DHT22;59593;51.716;7.016;2023-03-18T02:27:42;12.10;99.90
71754;DHT22;59593;51.716;7.016;2023-03-18T02:30:13;12.10;99.90
71754;DHT22;59593;51.716;7.016;2023-03-18T02:32:39;12.20;99.90
71754;DHT22;59593;51.716;7.016;2023-03-18T02:35:08;12.20;99.90
71754;DHT22;59593;51.716;7.016;2023-03-18T02:37:34;12.10;99.90
71754;DHT22;59593;51.716;7.016;2023-03-18T02:42:50;12.10;99.90
71754;DHT22;59593;51.716;7.016;2023-03-18T02:48:18;12.00;99.90
71754;DHT22;59593;51.716;7.016;2023-03-18T02:50:45;11.90;99.90
71754;DHT22;59593;51.716;7.016;2023-03-18T02:53:13;11.90;99.90
71754;DHT22;59593;51.716;7.016;2023-03-18T02:55:39;12.00;99.90
71754;DHT22;59593;51.716;7.016;2023-03-18T02:58:05;12.00;99.90
71754;DHT22;59593;51.716;7.016;2023-03-18T03:00:32;12.00;99.90
71754;DHT22;59593;51.716;7.016;2023-03-18T03:03:00;12.00;99.90
71754;DHT22;59593;51.716;7.016;2023-03-18T03:08:51;12.00;99.90
71754;DHT22;59593;51.716;7.016;2023-03-18T03:11:18;11.90;99.90
71754;DHT22;59593;51.716;7.016;2023-03-18T03:13:44;11.80;99.90
71754;DHT22;59593;51.716;7.016;2023-03-18T03:16:14;11.90;99.90
71754;DHT22;59593;51.716;7.016;2023-03-18T03:18:40;11.90;99.90
71754;DHT22;59593;51.716;7.016;2023-03-18T03:21:06;11.90;99.90
71754;DHT22;59593;51.716;7.016;2023-03-18T03:23:33;12.00;99.90
71754;DHT22;59593;51.716;7.016;2023-03-18T03:25:59;12.00;99.90
71754;DHT22;59593;51.716;7.016;2023-03-18T03:28:25;12.00;99.90
71754;DHT22;59593;51.716;7.016;2023-03-18T03:30:52;12.00;99.90
71754;DHT22;59593;51.716;7.016;2023-03-18T03:33:18;12.00;99.90
71754;DHT22;59593;51.716;7.016;2023-03-18T03:35:43;11.90;99.90
71754;DHT22;59593;51.716;7.016;2023-03-18T03:38:09;12.00;99.90
71754;DHT22;59593;51.716;7.016;2023-03-18T03:40:36;12.00;99.90
71754;DHT22;59593;51.716;7.016;2023-03-18T03:43:02;11.90;99.90
71754;DHT22;59593;51.716;7.016;2023-03-18T03:45:28;11.90;99.90
71754;DHT22;59593;51.716;7.016;2023-03-18T03:47:54;11.90;99.90
71754;DHT22;59593;51.716;7.016;2023-03-18T03:50:20;11.80;99.90
71754;DHT22;59593;51.716;7.016;2023-03-18T03:52:46;11.80;99.90
71754;DHT22;59593;51.716;7.016;2023-03-18T03:55:15;11.80;99.90
71754;DHT22;59593;51.716;7.016;2023-03-18T03:57:41;11.70;99.90
71754;DHT22;59593;51.716;7.016;2023-03-18T04:00:10;11.60;99.90
71754;DHT22;59593;51.716;7.016;2023-03-18T04:02:38;11.60;99.90
71754;DHT22;59593;51.716;7.016;2023-03-18T04:05:05;11.70;99.90
71754;DHT22;59593;51.716;7.016;2023-03-18T04:07:30;11.80;99.90
71754;DHT22;59593;51.716;7.016;2023-03-18T04:09:56;11.90;99.90
71754;DHT22;59593;51.716;7.016;2023-03-18T04:12:25;11.90;99.90
71754;DHT22;59593;51.716;7.016;2023-03-18T04:14:50;11.90;99.90
71754;DHT22;59593;51.716;7.016;2023-03-18T04:17:16;11.90;99.90
71754;DHT22;59593;51.716;7.016;2023-03-18T04:19:42;11.90;99.90
71754;DHT22;59593;51.716;7.016;2023-03-18T04:22:07;11.90;99.90
71754;DHT22;59593;51.716;7.016;2023-03-18T04:24:34;11.90;99.90
71754;DHT22;59593;51.716;7.016;2023-03-18T04:26:59;11.80;99.90
71754;DHT22;59593;51.716;7.016;2023-03-18T04:29:25;11.80;99.90
71754;DHT22;59593;51.716;7.016;2023-03-18T04:31:51;11.80;99.90
71754;DHT22;59593;51.716;7.016;2023-03-18T04:34:16;11.90;99.90
71754;DHT22;59593;51.716;7.016;2023-03-18T04:36:42;11.90;99.90
71754;DHT22;59593;51.716;7.016;2023-03-18T04:39:08;11.90;99.90
71754;DHT22;59593;51.716;7.016;2023-03-18T04:41:34;11.90;99.90
71754;DHT22;59593;51.716;7.016;2023-03-18T04:44:02;11.90;99.90
71754;DHT22;59593;51.716;7.016;2023-03-18T04:46:27;12.00;99.90
71754;DHT22;59593;51.716;7.016;2023-03-18T04:48:55;11.90;99.90
71754;DHT22;59593;51.716;7.016;2023-03-18T04:51:20;11.90;99.90
71754;DHT22;59593;51.716;7.016;2023-03-18T04:53:46;11.80;99.90
71754;DHT22;59593;51.716;7.016;2023-03-18T04:56:12;11.90;99.90
71754;DHT22;59593;51.716;7.016;2023-03-18T04:58:38;11.90;99.90
71754;DHT22;59593;51.716;7.016;2023-03-18T05:01:03;11.80;99.90
71754;DHT22;59593;51.716;7.016;2023-03-18T05:03:29;11.80;99.90
71754;DHT22;59593;51.716;7.016;2023-03-18T05:05:55;11.70;99.90
71754;DHT22;59593;51.716;7.016;2023-03-18T05:08:21;11.60;99.90
71754;DHT22;59593;51.716;7.016;2023-03-18T05:10:48;11.70;99.90
71754;DHT22;59593;51.716;7.016;2023-03-18T05:13:14;11.80;99.90
71754;DHT22;59593;51.716;7.016;2023-03-18T05:15:40;11.90;99.90
71754;DHT22;59593;51.716;7.016;2023-03-18T05:18:06;11.90;99.90
71754;DHT22;59593;51.716;7.016;2023-03-18T05:20:33;11.90;99.90
71754;DHT22;59593;51.716;7.016;2023-03-18T05:22:58;11.90;99.90
71754;DHT22;59593;51.716;7.016;2023-03-18T05:25:24;11.90;99.90
71754;DHT22;59593;51.716;7.016;2023-03-18T05:27:50;11.90;99.90
71754;DHT22;59593;51.716;7.016;2023-03-18T05:30:17;11.90;99.90
71754;DHT22;59593;51.716;7.016;2023-03-18T05:32:43;11.90;99.90
71754;DHT22;59593;51.716;7.016;2023-03-18T05:35:09;11.90;99.90
71754;DHT22;59593;51.716;7.016;2023-03-18T05:37:35;12.00;99.90
71754;DHT22;59593;51.716;7.016;2023-03-18T05:40:02;12.00;99.90
71754;DHT22;59593;51.716;7.016;2023-03-18T05:42:29;11.80;99.90
71754;DHT22;59593;51.716;7.016;2023-03-18T05:44:54;11.90;99.90
71754;DHT22;59593;51.716;7.016;2023-03-18T05:47:21;12.00;99.90
71754;DHT22;59593;51.716;7.016;2023-03-18T05:49:47;11.90;99.90
71754;DHT22;59593;51.716;7.016;2023-03-18T05:52:13;11.90;99.90
71754;DHT22;59593;51.716;7.016;2023-03-18T05:54:38;11.90;99.90
71754;DHT22;59593;51.716;7.016;2023-03-18T05:57:04;11.80;99.90
71754;DHT22;59593;51.716;7.016;2023-03-18T05:59:30;11.80;99.90
71754;DHT22;59593;51.716;7.016;2023-03-18T06:01:55;11.60;99.90
71754;DHT22;59593;51.716;7.016;2023-03-18T06:04:21;11.70;99.90
71754;DHT22;59593;51.716;7.016;2023-03-18T06:06:47;11.50;99.90
71754;DHT22;59593;51.716;7.016;2023-03-18T06:09:14;11.50;99.90
71754;DHT22;59593;51.716;7.016;2023-03-18T06:11:39;11.60;99.90
71754;DHT22;59593;51.716;7.016;2023-03-18T06:14:06;11.50;99.90
71754;DHT22;59593;51.716;7.016;2023-03-18T06:16:33;11.60;99.90
71754;DHT22;59593;51.716;7.016;2023-03-18T06:18:59;11.50;99.90
71754;DHT22;59593;51.716;7.016;2023-03-18T06:21:25;11.50;99.90
71754;DHT22;59593;51.716;7.016;2023-03-18T06:23:52;11.50;99.90
71754;DHT22;59593;51.716;7.016;2023-03-18T06:26:18;11.50;99.90
71754;DHT22;59593;51.716;7.016;2023-03-18T06:28:44;11.50;99.90
71754;DHT22;59593;51.716;7.016;2023-03-18T06:31:11;11.50;99.90
71754;DHT22;59593;51.716;7.016;2023-03-18T06:33:37;11.50;99.90
71754;DHT22;59593;51.716;7.016;2023-03-18T06:36:03;11.50;99.90
71754;DHT22;59593;51.716;7.016;2023-03-18T06:38:29;11.60;99.90
71754;DHT22;59593;51.716;7.016;2023-03-18T06:40:57;11.70;99.90
71754;DHT22;59593;51.716;7.016;2023-03-18T06:43:23;11.70;99.90
71754;DHT22;59593;51.716;7.016;2023-03-18T06:45:48;11.70;99.90
71754;DHT22;59593;51.716;7.016;2023-03-18T06:48:14;11.60;99.90
71754;DHT22;59593;51.716;7.016;2023-03-18T06:50:41;11.70;99.90
71754;DHT22;59593;51.716;7.016;2023-03-18T06:53:08;11.80;99.90
71754;DHT22;59593;51.716;7.016;2023-03-18T06:55:34;11.90;99.90
71754;DHT22;59593;51.716;7.016;2023-03-18T06:58:01;11.90;99.90
71754;DHT22;59593;51.716;7.016;2023-03-18T07:00:27;12.00;99.90
71754;DHT22;59593;51.716;7.016;2023-03-18T07:02:52;12.10;99.90
71754;DHT22;59593;51.716;7.016;2023-03-18T07:05:18;12.20;99.90
71754;DHT22;59593;51.716;7.016;2023-03-18T07:07:45;12.20;99.90
71754;DHT22;59593;51.716;7.016;2023-03-18T07:10:33;12.20;99.90
71754;DHT22;59593;51.716;7.016;2023-03-18T07:12:59;12.30;99.90
71754;DHT22;59593;51.716;7.016;2023-03-18T07:15:24;12.30;99.90
71754;DHT22;59593;51.716;7.016;2023-03-18T07:17:51;12.20;99.90
71754;DHT22;59593;51.716;7.016;2023-03-18T07:20:17;12.30;99.90
71754;DHT22;59593;51.716;7.016;2023-03-18T07:22:44;12.30;99.90
71754;DHT22;59593;51.716;7.016;2023-03-18T07:25:11;12.40;99.90
71754;DHT22;59593;51.716;7.016;2023-03-18T07:27:38;12.30;99.90
71754;DHT22;59593;51.716;7.016;2023-03-18T07:30:04;12.30;99.90
71754;DHT22;59593;51.716;7.016;2023-03-18T07:32:31;12.40;99.90
71754;DHT22;59593;51.716;7.016;2023-03-18T07:34:56;12.30;99.90
71754;DHT22;59593;51.716;7.016;2023-03-18T07:37:23;12.40;99.90
71754;DHT22;59593;51.716;7.016;2023-03-18T07:39:49;12.60;99.90
71754;DHT22;59593;51.716;7.016;2023-03-18T07:42:17;12.70;99.90
71754;DHT22;59593;51.716;7.016;2023-03-18T07:44:46;12.80;99.90
71754;DHT22;59593;51.716;7.016;2023-03-18T07:47:12;12.80;99.90
71754;DHT22;59593;51.716;7.016;2023-03-18T07:49:39;12.90;99.90
71754;DHT22;59593;51.716;7.016;2023-03-18T07:52:06;13.00;99.90
71754;DHT22;59593;51.716;7.016;2023-03-18T07:54:32;13.10;99.90
71754;DHT22;59593;51.716;7.016;2023-03-18T07:56:58;13.00;99.90
71754;DHT22;59593;51.716;7.016;2023-03-18T07:59:23;13.00;99.90
71754;DHT22;59593;51.716;7.016;2023-03-18T08:01:49;13.00;99.90
71754;DHT22;59593;51.716;7.016;2023-03-18T08:04:15;13.00;99.90
71754;DHT22;59593;51.716;7.016;2023-03-18T08:06:41;13.00;99.90
71754;DHT22;59593;51.716;7.016;2023-03-18T08:09:07;13.00;99.90
71754;DHT22;59593;51.716;7.016;2023-03-18T08:11:33;13.00;99.90
71754;DHT22;59593;51.716;7.016;2023-03-18T08:13:59;13.00;99.90
71754;DHT22;59593;51.716;7.016;2023-03-18T08:16:25;13.10;99.90
71754;DHT22;59593;51.716;7.016;2023-03-18T08:18:51;13.10;99.90
71754;DHT22;59593;51.716;7.016;2023-03-18T08:21:17;13.20;99.90
71754;DHT22;59593;51.716;7.016;2023-03-18T08:23:43;13.20;99.90
71754;DHT22;59593;51.716;7.016;2023-03-18T08:26:09;13.30;99.90
71754;DHT22;59593;51.716;7.016;2023-03-18T08:28:35;13.30;99.90
71754;DHT22;59593;51.716;7.016;2023-03-18T08:31:01;13.30;99.90
71754;DHT22;59593;51.716;7.016;2023-03-18T08:33:27;13.60;99.90
71754;DHT22;59593;51.716;7.016;2023-03-18T08:35:54;13.60;99.90
71754;DHT22;59593;51.716;7.016;2023-03-18T08:38:21;13.60;99.90
71754;DHT22;59593;51.716;7.016;2023-03-18T08:40:48;13.60;99.90
71754;DHT22;59593;51.716;7.016;2023-03-18T08:43:13;13.50;99.90
71754;DHT22;59593;51.716;7.016;2023-03-18T08:45:39;13.40;99.90
71754;DHT22;59593;51.716;7.016;2023-03-18T08:48:05;13.50;99.90
71754;DHT22;59593;51.716;7.016;2023-03-18T08:50:32;13.60;99.90
71754;DHT22;59593;51.716;7.016;2023-03-18T08:52:59;13.60;99.90
71754;DHT22;59593;51.716;7.016;2023-03-18T08:55:30;13.70;99.90
71754;DHT22;59593;51.716;7.016;2023-03-18T08:57:56;13.70;99.90
71754;DHT22;59593;51.716;7.016;2023-03-18T09:00:23;13.60;99.90
71754;DHT22;59593;51.716;7.016;2023-03-18T09:02:50;13.60;99.90
71754;DHT22;59593;51.716;7.016;2023-03-18T09:05:17;13.70;99.90
71754;DHT22;59593;51.716;7.016;2023-03-18T09:07:43;13.90;99.90
71754;DHT22;59593;51.716;7.016;2023-03-18T09:10:10;14.10;99.90
71754;DHT22;59593;51.716;7.016;2023-03-18T09:12:38;14.20;99.90
71754;DHT22;59593;51.716;7.016;2023-03-18T09:15:04;14.10;99.90
71754;DHT22;59593;51.716;7.016;2023-03-18T09:17:30;14.00;99.90
71754;DHT22;59593;51.716;7.016;2023-03-18T09:19:56;14.10;99.90
71754;DHT22;59593;51.716;7.016;2023-03-18T09:22:22;14.30;99.90
71754;DHT22;59593;51.716;7.016;2023-03-18T09:24:48;14.40;99.90
71754;DHT22;59593;51.716;7.016;2023-03-18T09:27:13;14.40;99.90
71754;DHT22;59593;51.716;7.016;2023-03-18T09:29:39;14.40;99.90
71754;DHT22;59593;51.716;7.016;2023-03-18T09:32:05;14.50;99.90
71754;DHT22;59593;51.716;7.016;2023-03-18T09:34:31;14.50;99.90
71754;DHT22;59593;51.716;7.016;2023-03-18T09:36:56;14.50;99.90
71754;DHT22;59593;51.716;7.016;2023-03-18T09:39:23;14.60;99.90
71754;DHT22;59593;51.716;7.016;2023-03-18T09:44:36;14.70;99.90
71754;DHT22;59593;51.716;7.016;2023-03-18T09:49:49;14.80;99.90
71754;DHT22;59593;51.716;7.016;2023-03-18T09:52:31;14.70;99.90
71754;DHT22;59593;51.716;7.016;2023-03-18T09:57:44;15.00;99.90
71754;DHT22;59593;51.716;7.016;2023-03-18T10:05:59;15.10;99.90
71754;DHT22;59593;51.716;7.016;2023-03-18T10:08:48;15.10;99.90
71754;DHT22;59593;51.716;7.016;2023-03-18T10:11:31;15.00;99.90
71754;DHT22;59593;51.716;7.016;2023-03-18T10:17:12;15.00;99.90
71754;DHT22;59593;51.716;7.016;2023-03-18T10:19:45;15.00;99.90
71754;DHT22;59593;51.716;7.016;2023-03-18T10:25:23;15.40;99.90
71754;DHT22;59593;51.716;7.016;2023-03-18T10:30:37;15.40;99.90
71754;DHT22;59593;51.716;7.016;2023-03-18T10:35:59;15.10;99.90
71754;DHT22;59593;51.716;7.016;2023-03-18T10:38:30;15.40;99.90
71754;DHT22;59593;51.716;7.016;2023-03-18T10:40:59;15.70;99.90
71754;DHT22;59593;51.716;7.016;2023-03-18T10:43:28;16.20;99.90
71754;DHT22;59593;51.716;7.016;2023-03-18T10:46:03;16.40;99.90
71754;DHT22;59593;51.716;7.016;2023-03-18T10:48:35;16.70;99.90
71754;DHT22;59593;51.716;7.016;2023-03-18T10:53:59;17.20;99.90
71754;DHT22;59593;51.716;7.016;2023-03-18T10:56:27;17.60;99.90
71754;DHT22;59593;51.716;7.016;2023-03-18T10:58:53;17.70;99.90
71754;DHT22;59593;51.716;7.016;2023-03-18T11:01:22;17.70;99.90
71754;DHT22;59593;51.716;7.016;2023-03-18T11:03:58;18.10;99.90
71754;DHT22;59593;51.716;7.016;2023-03-18T11:06:34;18.50;99.90
71754;DHT22;59593;51.716;7.016;2023-03-18T11:09:09;18.30;99.90
71754;DHT22;59593;51.716;7.016;2023-03-18T11:11:44;18.90;99.90
71754;DHT22;59593;51.716;7.016;2023-03-18T11:14:20;19.50;99.90
71754;DHT22;59593;51.716;7.016;2023-03-18T11:16:55;19.60;99.90
71754;DHT22;59593;51.716;7.016;2023-03-18T11:24:36;19.20;99.90
71754;DHT22;59593;51.716;7.016;2023-03-18T11:29:49;19.40;99.90
71754;DHT22;59593;51.716;7.016;2023-03-18T11:34:58;18.40;99.90
71754;DHT22;59593;51.716;7.016;2023-03-18T11:37:45;18.50;99.90
71754;DHT22;59593;51.716;7.016;2023-03-18T11:40:16;18.20;99.90
71754;DHT22;59593;51.716;7.016;2023-03-18T11:42:45;17.50;99.90
71754;DHT22;59593;51.716;7.016;2023-03-18T11:45:33;16.80;99.90
71754;DHT22;59593;51.716;7.016;2023-03-18T11:48:00;17.10;99.90
71754;DHT22;59593;51.716;7.016;2023-03-18T11:50:37;18.10;99.90
71754;DHT22;59593;51.716;7.016;2023-03-18T11:53:09;20.30;99.90
71754;DHT22;59593;51.716;7.016;2023-03-18T12:04:03;21.80;99.90
71754;DHT22;59593;51.716;7.016;2023-03-18T12:06:39;21.90;99.90
71754;DHT22;59593;51.716;7.016;2023-03-18T12:12:40;21.90;99.90
71754;DHT22;59593;51.716;7.016;2023-03-18T12:14:56;23.20;99.90
71754;DHT22;59593;51.716;7.016;2023-03-18T12:17:33;22.70;99.90
71754;DHT22;59593;51.716;7.016;2023-03-18T12:23:09;20.30;99.90
71754;DHT22;59593;51.716;7.016;2023-03-18T12:31:44;22.50;99.90
71754;DHT22;59593;51.716;7.016;2023-03-18T12:34:22;22.00;99.90
71754;DHT22;59593;51.716;7.016;2023-03-18T12:42:48;20.20;99.90
71754;DHT22;59593;51.716;7.016;2023-03-18T12:45:18;21.20;99.90
71754;DHT22;59593;51.716;7.016;2023-03-18T12:47:52;23.00;99.90
71754;DHT22;59593;51.716;7.016;2023-03-18T12:55:57;20.60;99.90
71754;DHT22;59593;51.716;7.016;2023-03-18T12:58:39;21.60;99.90
71754;DHT22;59593;51.716;7.016;2023-03-18T13:01:10;21.20;99.90
71754;DHT22;59593;51.716;7.016;2023-03-18T13:03:46;20.70;99.90
71754;DHT22;59593;51.716;7.016;2023-03-18T13:06:44;20.90;99.90
71754;DHT22;59593;51.716;7.016;2023-03-18T13:09:40;20.80;99.90
71754;DHT22;59593;51.716;7.016;2023-03-18T13:12:16;20.10;99.90
71754;DHT22;59593;51.716;7.016;2023-03-18T13:17:42;19.00;99.90
71754;DHT22;59593;51.716;7.016;2023-03-18T13:20:12;18.80;99.90
71754;DHT22;59593;51.716;7.016;2023-03-18T13:25:17;18.60;99.90
71754;DHT22;59593;51.716;7.016;2023-03-18T13:36:44;18.20;99.90
71754;DHT22;59593;51.716;7.016;2023-03-18T13:39:23;18.20;99.90
71754;DHT22;59593;51.716;7.016;2023-03-18T13:45:04;18.00;99.90
71754;DHT22;59593;51.716;7.016;2023-03-18T13:47:36;17.80;99.90
71754;DHT22;59593;51.716;7.016;2023-03-18T13:50:26;17.80;99.90
71754;DHT22;59593;51.716;7.016;2023-03-18T13:52:55;17.90;99.90
71754;DHT22;59593;51.716;7.016;2023-03-18T13:55:39;17.80;99.90
71754;DHT22;59593;51.716;7.016;2023-03-18T13:58:45;17.80;99.90
71754;DHT22;59593;51.716;7.016;2023-03-18T14:06:38;17.80;99.90
71754;DHT22;59593;51.716;7.016;2023-03-18T14:09:58;17.90;99.90
71754;DHT22;59593;51.716;7.016;2023-03-18T14:22:44;17.90;99.90
71754;DHT22;59593;51.716;7.016;2023-03-18T14:27:56;17.70;99.90
71754;DHT22;59593;51.716;7.016;2023-03-18T14:30:45;17.60;99.90
71754;DHT22;59593;51.716;7.016;2023-03-18T14:35:58;17.50;99.90
71754;DHT22;59593;51.716;7.016;2023-03-18T14:40:57;17.50;99.90
71754;DHT22;59593;51.716;7.016;2023-03-18T14:43:36;17.30;99.90
71754;DHT22;59593;51.716;7.016;2023-03-18T14:46:15;17.20;99.90
71754;DHT22;59593;51.716;7.016;2023-03-18T14:48:42;17.20;99.90
71754;DHT22;59593;51.716;7.016;2023-03-18T14:51:18;17.00;99.90
71754;DHT22;59593;51.716;7.016;2023-03-18T14:53:49;16.90;99.90
71754;DHT22;59593;51.716;7.016;2023-03-18T14:56:21;16.50;99.90
71754;DHT22;59593;51.716;7.016;2023-03-18T14:58:51;15.80;99.90
71754;DHT22;59593;51.716;7.016;2023-03-18T15:01:33;15.00;99.90
71754;DHT22;59593;51.716;7.016;2023-03-18T15:04:00;14.50;99.90
71754;DHT22;59593;51.716;7.016;2023-03-18T15:06:26;14.10;99.90
71754;DHT22;59593;51.716;7.016;2023-03-18T15:09:28;14.00;99.90
71754;DHT22;59593;51.716;7.016;2023-03-18T15:11:55;14.40;99.90
71754;DHT22;59593;51.716;7.016;2023-03-18T15:14:30;15.30;99.90
71754;DHT22;59593;51.716;7.016;2023-03-18T15:17:01;15.90;99.90
71754;DHT22;59593;51.716;7.016;2023-03-18T15:19:28;16.30;99.90
71754;DHT22;59593;51.716;7.016;2023-03-18T15:21:57;16.20;99.90
71754;DHT22;59593;51.716;7.016;2023-03-18T15:24:27;16.10;99.90
71754;DHT22;59593;51.716;7.016;2023-03-18T15:29:35;15.90;99.90
71754;DHT22;59593;51.716;7.016;2023-03-18T15:34:40;15.60;99.90
71754;DHT22;59593;51.716;7.016;2023-03-18T15:37:42;15.50;99.90
71754;DHT22;59593;51.716;7.016;2023-03-18T15:42:46;15.30;99.90
71754;DHT22;59593;51.716;7.016;2023-03-18T15:45:20;15.30;99.90
71754;DHT22;59593;51.716;7.016;2023-03-18T15:47:49;15.10;99.90
71754;DHT22;59593;51.716;7.016;2023-03-18T15:52:44;15.10;99.90
71754;DHT22;59593;51.716;7.016;2023-03-18T15:55:50;15.00;99.90
71754;DHT22;59593;51.716;7.016;2023-03-18T15:58:27;15.10;99.90
71754;DHT22;59593;51.716;7.016;2023-03-18T16:00:58;15.20;99.90
71754;DHT22;59593;51.716;7.016;2023-03-18T16:03:25;15.30;99.90
71754;DHT22;59593;51.716;7.016;2023-03-18T16:05:54;15.40;99.90
71754;DHT22;59593;51.716;7.016;2023-03-18T16:08:21;15.40;99.90
71754;DHT22;59593;51.716;7.016;2023-03-18T16:10:50;15.50;99.90
71754;DHT22;59593;51.716;7.016;2023-03-18T16:13:22;15.70;99.90
71754;DHT22;59593;51.716;7.016;2023-03-18T16:15:48;16.10;99.90
71754;DHT22;59593;51.716;7.016;2023-03-18T16:18:13;16.10;99.90
71754;DHT22;59593;51.716;7.016;2023-03-18T16:20:39;16.00;99.90
71754;DHT22;59593;51.716;7.016;2023-03-18T16:23:06;16.10;99.90
71754;DHT22;59593;51.716;7.016;2023-03-18T16:25:32;15.90;99.90
71754;DHT22;59593;51.716;7.016;2023-03-18T16:27:58;15.90;99.90
71754;DHT22;59593;51.716;7.016;2023-03-18T16:30:29;15.80;99.90
71754;DHT22;59593;51.716;7.016;2023-03-18T16:32:56;15.60;99.90
71754;DHT22;59593;51.716;7.016;2023-03-18T16:35:32;15.30;99.90
71754;DHT22;59593;51.716;7.016;2023-03-18T16:37:58;15.50;99.90
71754;DHT22;59593;51.716;7.016;2023-03-18T16:40:27;15.70;99.90
71754;DHT22;59593;51.716;7.016;2023-03-18T16:42:53;15.80;99.90
71754;DHT22;59593;51.716;7.016;2023-03-18T16:45:23;15.60;99.90
71754;DHT22;59593;51.716;7.016;2023-03-18T16:47:50;15.50;99.90
71754;DHT22;59593;51.716;7.016;2023-03-18T16:50:24;15.60;99.90
71754;DHT22;59593;51.716;7.016;2023-03-18T16:52:51;15.70;99.90
71754;DHT22;59593;51.716;7.016;2023-03-18T16:55:18;15.70;99.90
71754;DHT22;59593;51.716;7.016;2023-03-18T16:57:50;15.60;99.90
71754;DHT22;59593;51.716;7.016;2023-03-18T17:00:20;15.10;99.90
71754;DHT22;59593;51.716;7.016;2023-03-18T17:02:47;15.00;99.90
71754;DHT22;59593;51.716;7.016;2023-03-18T17:05:17;14.70;99.90
71754;DHT22;59593;51.716;7.016;2023-03-18T17:07:44;14.70;99.90
71754;DHT22;59593;51.716;7.016;2023-03-18T17:10:14;14.40;99.90
71754;DHT22;59593;51.716;7.016;2023-03-18T17:12:50;14.20;99.90
71754;DHT22;59593;51.716;7.016;2023-03-18T17:15:18;14.10;99.90
71754;DHT22;59593;51.716;7.016;2023-03-18T17:17:47;14.10;99.90
71754;DHT22;59593;51.716;7.016;2023-03-18T17:20:16;13.80;99.90
71754;DHT22;59593;51.716;7.016;2023-03-18T17:22:42;13.70;99.90
71754;DHT22;59593;51.716;7.016;2023-03-18T17:25:08;13.60;99.90
71754;DHT22;59593;51.716;7.016;2023-03-18T17:27:42;13.50;99.90
71754;DHT22;59593;51.716;7.016;2023-03-18T17:32:49;13.40;99.90
71754;DHT22;59593;51.716;7.016;2023-03-18T17:35:17;13.30;99.90
71754;DHT22;59593;51.716;7.016;2023-03-18T17:37:44;13.30;99.90
71754;DHT22;59593;51.716;7.016;2023-03-18T17:40:12;13.20;99.90
71754;DHT22;59593;51.716;7.016;2023-03-18T17:42:38;13.20;99.90
71754;DHT22;59593;51.716;7.016;2023-03-18T17:45:14;13.20;99.90
71754;DHT22;59593;51.716;7.016;2023-03-18T17:47:43;13.10;99.90
71754;DHT22;59593;51.716;7.016;2023-03-18T17:50:18;13.00;99.90
71754;DHT22;59593;51.716;7.016;2023-03-18T17:52:50;13.00;99.90
71754;DHT22;59593;51.716;7.016;2023-03-18T17:55:18;12.90;99.90
71754;DHT22;59593;51.716;7.016;2023-03-18T17:57:45;12.90;99.90
71754;DHT22;59593;51.716;7.016;2023-03-18T18:00:20;12.90;99.90
71754;DHT22;59593;51.716;7.016;2023-03-18T18:02:46;12.90;99.90
71754;DHT22;59593;51.716;7.016;2023-03-18T18:05:17;13.00;99.90